sensor_id;sensor_type;location;lat;lon;timestamp;pressure;altitude;pressure_sealevel;temperature;humidity
29359;BME280;16347;53.232;6.556;2023-05-17T00:02:22;102339.19;;;13.43;52.59
29359;BME280;16347;53.232;6.556;2023-05-17T00:04:50;102335.13;;;13.37;52.70
29359;BME280;16347;53.232;6.556;2023-05-17T00:07:19;102337.56;;;13.40;53.00
29359;BME280;16347;53.232;6.556;2023-05-17T00:09:47;102342.19;;;13.40;52.52
29359;BME280;16347;53.232;6.556;2023-05-17T00:12:15;102338.72;;;13.28;52.72
29359;BME280;16347;53.232;6.556;2023-05-17T00:14:44;102341.53;;;13.17;52.84
29359;BME280;16347;53.232;6.556;2023-05-17T00:17:12;102344.13;;;13.09;53.49
29359;BME280;16347;53.232;6.556;2023-05-17T00:19:40;102340.66;;;13.16;53.36
29359;BME280;16347;53.232;6.556;2023-05-17T00:22:08;102340.41;;;13.19;53.64
29359;BME280;16347;53.232;6.556;2023-05-17T00:24:36;102336.66;;;13.20;53.52
29359;BME280;16347;53.232;6.556;2023-05-17T00:27:04;102344.72;;;13.22;52.98
29359;BME280;16347;53.232;6.556;2023-05-17T00:29:32;102336.63;;;13.11;53.88
29359;BME280;16347;53.232;6.556;2023-05-17T00:32:02;102344.13;;;13.09;53.96
29359;BME280;16347;53.232;6.556;2023-05-17T00:34:30;102350.06;;;13.03;54.46
29359;BME280;16347;53.232;6.556;2023-05-17T00:36:58;102346.03;;;12.97;54.56
29359;BME280;16347;53.232;6.556;2023-05-17T00:39:25;102345.19;;;13.06;54.66
29359;BME280;16347;53.232;6.556;2023-05-17T00:41:53;102348.16;;;13.14;54.42
29359;BME280;16347;53.232;6.556;2023-05-17T00:44:21;102347.94;;;13.06;54.81
29359;BME280;16347;53.232;6.556;2023-05-17T00:46:49;102355.34;;;13.15;54.78
29359;BME280;16347;53.232;6.556;2023-05-17T00:49:18;102346.31;;;13.24;54.49
29359;BME280;16347;53.232;6.556;2023-05-17T00:51:47;102345.44;;;13.24;54.20
29359;BME280;16347;53.232;6.556;2023-05-17T00:54:15;102347.78;;;13.28;54.63
29359;BME280;16347;53.232;6.556;2023-05-17T00:56:43;102350.03;;;13.23;54.55
29359;BME280;16347;53.232;6.556;2023-05-17T00:59:12;102349.31;;;13.21;54.55
29359;BME280;16347;53.232;6.556;2023-05-17T01:01:41;102350.63;;;13.27;54.39
29359;BME280;16347;53.232;6.556;2023-05-17T01:04:11;102349.31;;;13.21;54.74
29359;BME280;16347;53.232;6.556;2023-05-17T01:06:40;102355.78;;;13.20;54.71
29359;BME280;16347;53.232;6.556;2023-05-17T01:09:08;102358.22;;;13.23;54.85
29359;BME280;16347;53.232;6.556;2023-05-17T01:11:43;102355.09;;;13.28;54.96
29359;BME280;16347;53.232;6.556;2023-05-17T01:14:29;102351.22;;;13.30;54.75
29359;BME280;16347;53.232;6.556;2023-05-17T01:17:02;102354.81;;;13.31;54.56
29359;BME280;16347;53.232;6.556;2023-05-17T01:19:48;102357.38;;;13.23;54.98
29359;BME280;16347;53.232;6.556;2023-05-17T01:22:26;102356.66;;;13.21;54.36
29359;BME280;16347;53.232;6.556;2023-05-17T01:25:07;102356.66;;;13.21;54.04
29359;BME280;16347;53.232;6.556;2023-05-17T01:27:40;102351.19;;;13.21;54.14
29359;BME280;16347;53.232;6.556;2023-05-17T01:30:12;102360.97;;;13.23;53.93
29359;BME280;16347;53.232;6.556;2023-05-17T01:32:44;102362.00;;;13.22;53.83
29359;BME280;16347;53.232;6.556;2023-05-17T01:35:15;102360.53;;;13.18;53.80
29359;BME280;16347;53.232;6.556;2023-05-17T01:37:43;102352.19;;;13.20;53.71
29359;BME280;16347;53.232;6.556;2023-05-17T01:40:12;102355.94;;;13.19;53.05
29359;BME280;16347;53.232;6.556;2023-05-17T01:42:44;102359.47;;;13.10;53.27
29359;BME280;16347;53.232;6.556;2023-05-17T01:45:23;102362.75;;;13.04;53.18
29359;BME280;16347;53.232;6.556;2023-05-17T01:48:02;102364.28;;;12.97;53.45
29359;BME280;16347;53.232;6.556;2023-05-17T01:50:42;102370.63;;;12.97;53.12
29359;BME280;16347;53.232;6.556;2023-05-17T01:53:19;102374.41;;;13.06;53.37
29359;BME280;16347;53.232;6.556;2023-05-17T01:55:50;102370.28;;;13.11;52.49
29359;BME280;16347;53.232;6.556;2023-05-17T01:58:24;102372.28;;;13.09;52.78
29359;BME280;16347;53.232;6.556;2023-05-17T02:00:54;102375.47;;;13.14;52.52
29359;BME280;16347;53.232;6.556;2023-05-17T02:03:23;102376.59;;;13.12;52.57
29359;BME280;16347;53.232;6.556;2023-05-17T02:05:51;102379.06;;;13.15;52.34
29359;BME280;16347;53.232;6.556;2023-05-17T02:08:19;102376.34;;;13.15;52.12
29359;BME280;16347;53.232;6.556;2023-05-17T02:10:47;102372.06;;;13.01;52.10
29359;BME280;16347;53.232;6.556;2023-05-17T02:13:15;102369.34;;;13.01;51.91
29359;BME280;16347;53.232;6.556;2023-05-17T02:15:44;102368.63;;;12.99;51.92
29359;BME280;16347;53.232;6.556;2023-05-17T02:18:12;102369.72;;;12.87;52.30
29359;BME280;16347;53.232;6.556;2023-05-17T02:20:41;102377.19;;;12.85;52.22
29359;BME280;16347;53.232;6.556;2023-05-17T02:23:09;102384.22;;;12.88;52.30
29359;BME280;16347;53.232;6.556;2023-05-17T02:25:37;102387.94;;;12.86;52.50
29359;BME280;16347;53.232;6.556;2023-05-17T02:28:05;102386.41;;;12.94;52.33
29359;BME280;16347;53.232;6.556;2023-05-17T02:30:34;102390.16;;;12.93;52.40
29359;BME280;16347;53.232;6.556;2023-05-17T02:33:03;102399.19;;;12.93;52.56
29359;BME280;16347;53.232;6.556;2023-05-17T02:35:31;102394.19;;;12.98;52.58
29359;BME280;16347;53.232;6.556;2023-05-17T02:38:00;102398.66;;;12.99;52.39
29359;BME280;16347;53.232;6.556;2023-05-17T02:40:28;102403.09;;;13.00;52.11
29359;BME280;16347;53.232;6.556;2023-05-17T02:42:56;102400.81;;;12.96;52.50
29359;BME280;16347;53.232;6.556;2023-05-17T02:45:24;102406.00;;;12.99;51.95
29359;BME280;16347;53.232;6.556;2023-05-17T02:47:53;102408.44;;;13.02;51.80
29359;BME280;16347;53.232;6.556;2023-05-17T02:50:22;102404.44;;;13.06;51.79
29359;BME280;16347;53.232;6.556;2023-05-17T02:52:50;102412.88;;;13.03;51.82
29359;BME280;16347;53.232;6.556;2023-05-17T02:55:18;102412.41;;;13.09;51.70
29359;BME280;16347;53.232;6.556;2023-05-17T02:57:47;102412.22;;;13.10;51.13
29359;BME280;16347;53.232;6.556;2023-05-17T03:00:16;102415.38;;;13.06;51.25
29359;BME280;16347;53.232;6.556;2023-05-17T03:02:44;102424.41;;;13.06;51.47
29359;BME280;16347;53.232;6.556;2023-05-17T03:05:12;102422.09;;;13.02;51.35
29359;BME280;16347;53.232;6.556;2023-05-17T03:07:46;102424.22;;;12.98;51.34
29359;BME280;16347;53.232;6.556;2023-05-17T03:10:14;102425.66;;;12.93;51.63
29359;BME280;16347;53.232;6.556;2023-05-17T03:12:44;102428.91;;;12.86;51.57
29359;BME280;16347;53.232;6.556;2023-05-17T03:15:15;102434.31;;;12.77;51.19
29359;BME280;16347;53.232;6.556;2023-05-17T03:17:43;102434.47;;;12.55;51.82
29359;BME280;16347;53.232;6.556;2023-05-17T03:20:12;102431.63;;;12.66;51.36
29359;BME280;16347;53.232;6.556;2023-05-17T03:22:40;102432.06;;;12.61;51.22
29359;BME280;16347;53.232;6.556;2023-05-17T03:25:09;102440.44;;;12.69;50.86
29359;BME280;16347;53.232;6.556;2023-05-17T03:27:37;102439.50;;;12.59;50.02
29359;BME280;16347;53.232;6.556;2023-05-17T03:30:06;102445.22;;;12.56;50.04
29359;BME280;16347;53.232;6.556;2023-05-17T03:32:37;102448.97;;;12.55;50.25
29359;BME280;16347;53.232;6.556;2023-05-17T03:35:07;102453.03;;;12.61;49.75
29359;BME280;16347;53.232;6.556;2023-05-17T03:37:36;102451.53;;;12.57;49.21
29359;BME280;16347;53.232;6.556;2023-05-17T03:40:05;102458.00;;;12.56;49.13
29359;BME280;16347;53.232;6.556;2023-05-17T03:42:35;102455.38;;;12.33;48.81
29359;BME280;16347;53.232;6.556;2023-05-17T03:45:05;102459.94;;;12.44;48.77
29359;BME280;16347;53.232;6.556;2023-05-17T03:47:34;102464.13;;;12.48;48.01
29359;BME280;16347;53.232;6.556;2023-05-17T03:50:03;102458.94;;;12.45;47.35
29359;BME280;16347;53.232;6.556;2023-05-17T03:52:31;102460.81;;;12.45;47.32
29359;BME280;16347;53.232;6.556;2023-05-17T03:54:59;102471.16;;;12.30;45.81
29359;BME280;16347;53.232;6.556;2023-05-17T03:57:29;102470.00;;;12.32;45.94
29359;BME280;16347;53.232;6.556;2023-05-17T03:59:58;102475.34;;;12.34;46.06
29359;BME280;16347;53.232;6.556;2023-05-17T04:02:26;102479.81;;;12.35;46.19
29359;BME280;16347;53.232;6.556;2023-05-17T04:04:54;102490.84;;;12.33;45.77
29359;BME280;16347;53.232;6.556;2023-05-17T04:07:23;102484.06;;;12.28;46.16
29359;BME280;16347;53.232;6.556;2023-05-17T04:09:50;102493.94;;;12.29;45.83
29359;BME280;16347;53.232;6.556;2023-05-17T04:12:18;102499.56;;;12.27;46.03
29359;BME280;16347;53.232;6.556;2023-05-17T04:14:46;102494.81;;;12.29;46.11
29359;BME280;16347;53.232;6.556;2023-05-17T04:17:15;102498.41;;;12.30;45.60
29359;BME280;16347;53.232;6.556;2023-05-17T04:19:45;102503.75;;;12.31;46.20
29359;BME280;16347;53.232;6.556;2023-05-17T04:22:13;102499.66;;;12.26;45.77
29359;BME280;16347;53.232;6.556;2023-05-17T04:24:41;102505.47;;;12.32;45.48
29359;BME280;16347;53.232;6.556;2023-05-17T04:27:09;102507.47;;;12.30;45.11
29359;BME280;16347;53.232;6.556;2023-05-17T04:29:37;102515.91;;;12.27;45.65
29359;BME280;16347;53.232;6.556;2023-05-17T04:32:07;102516.28;;;12.23;45.65
29359;BME280;16347;53.232;6.556;2023-05-17T04:34:37;102524.13;;;12.16;46.21
29359;BME280;16347;53.232;6.556;2023-05-17T04:37:07;102516.69;;;12.18;46.17
29359;BME280;16347;53.232;6.556;2023-05-17T04:39:36;102522.63;;;12.23;46.00
29359;BME280;16347;53.232;6.556;2023-05-17T04:42:04;102536.34;;;12.33;46.28
29359;BME280;16347;53.232;6.556;2023-05-17T04:44:35;102528.91;;;12.35;46.23
29359;BME280;16347;53.232;6.556;2023-05-17T04:47:04;102547.09;;;12.46;46.70
29359;BME280;16347;53.232;6.556;2023-05-17T04:49:32;102540.53;;;12.48;46.37
29359;BME280;16347;53.232;6.556;2023-05-17T04:52:03;102547.56;;;12.51;45.84
29359;BME280;16347;53.232;6.556;2023-05-17T04:54:33;102555.25;;;12.57;46.07
29359;BME280;16347;53.232;6.556;2023-05-17T04:57:01;102554.63;;;12.53;45.78
29359;BME280;16347;53.232;6.556;2023-05-17T04:59:49;102564.56;;;12.54;45.64
29359;BME280;16347;53.232;6.556;2023-05-17T05:02:17;102567.06;;;12.46;44.96
29359;BME280;16347;53.232;6.556;2023-05-17T05:04:45;102564.13;;;12.38;44.67
29359;BME280;16347;53.232;6.556;2023-05-17T05:07:15;102564.88;;;12.29;44.61
29359;BME280;16347;53.232;6.556;2023-05-17T05:09:44;102570.31;;;12.29;45.08
29359;BME280;16347;53.232;6.556;2023-05-17T05:12:13;102567.72;;;12.39;44.68
29359;BME280;16347;53.232;6.556;2023-05-17T05:14:42;102574.38;;;12.46;44.13
29359;BME280;16347;53.232;6.556;2023-05-17T05:17:10;102581.56;;;12.47;43.89
29359;BME280;16347;53.232;6.556;2023-05-17T05:19:39;102593.47;;;12.46;44.07
29359;BME280;16347;53.232;6.556;2023-05-17T05:22:08;102587.88;;;12.47;44.45
29359;BME280;16347;53.232;6.556;2023-05-17T05:24:39;102595.69;;;12.52;44.45
29359;BME280;16347;53.232;6.556;2023-05-17T05:27:07;102604.97;;;12.49;44.55
29359;BME280;16347;53.232;6.556;2023-05-17T05:29:36;102603.53;;;12.45;45.13
29359;BME280;16347;53.232;6.556;2023-05-17T05:32:05;102605.38;;;12.45;45.33
29359;BME280;16347;53.232;6.556;2023-05-17T05:34:39;102609.84;;;12.46;45.59
29359;BME280;16347;53.232;6.556;2023-05-17T05:37:07;102623.97;;;12.51;45.02
29359;BME280;16347;53.232;6.556;2023-05-17T05:39:35;102617.66;;;12.39;44.07
29359;BME280;16347;53.232;6.556;2023-05-17T05:42:05;102610.66;;;12.25;43.64
29359;BME280;16347;53.232;6.556;2023-05-17T05:44:33;102616.31;;;12.22;43.12
29359;BME280;16347;53.232;6.556;2023-05-17T05:47:03;102615.34;;;12.34;42.86
29359;BME280;16347;53.232;6.556;2023-05-17T05:49:31;102620.16;;;12.42;43.00
29359;BME280;16347;53.232;6.556;2023-05-17T05:51:59;102613.16;;;12.49;42.82
29359;BME280;16347;53.232;6.556;2023-05-17T05:54:29;102622.84;;;12.53;43.05
29359;BME280;16347;53.232;6.556;2023-05-17T05:56:57;102613.28;;;12.59;42.93
29359;BME280;16347;53.232;6.556;2023-05-17T05:59:28;102616.22;;;12.67;42.44
29359;BME280;16347;53.232;6.556;2023-05-17T06:01:56;102624.31;;;12.68;42.92
29359;BME280;16347;53.232;6.556;2023-05-17T06:04:25;102617.19;;;12.77;42.98
29359;BME280;16347;53.232;6.556;2023-05-17T06:07:10;102628.13;;;12.66;42.57
29359;BME280;16347;53.232;6.556;2023-05-17T06:09:38;102634.88;;;12.62;43.42
29359;BME280;16347;53.232;6.556;2023-05-17T06:12:06;102634.19;;;12.69;43.50
29359;BME280;16347;53.232;6.556;2023-05-17T06:14:36;102629.09;;;12.76;43.82
29359;BME280;16347;53.232;6.556;2023-05-17T06:17:04;102648.19;;;12.76;44.27
29359;BME280;16347;53.232;6.556;2023-05-17T06:19:32;102647.00;;;12.69;44.63
29359;BME280;16347;53.232;6.556;2023-05-17T06:22:00;102647.84;;;12.69;44.41
29359;BME280;16347;53.232;6.556;2023-05-17T06:24:28;102654.09;;;12.60;44.84
29359;BME280;16347;53.232;6.556;2023-05-17T06:26:56;102661.53;;;12.58;45.24
29359;BME280;16347;53.232;6.556;2023-05-17T06:29:24;102666.84;;;12.60;45.95
29359;BME280;16347;53.232;6.556;2023-05-17T06:31:53;102668.22;;;12.65;46.25
29359;BME280;16347;53.232;6.556;2023-05-17T06:34:23;102672.19;;;12.72;46.02
29359;BME280;16347;53.232;6.556;2023-05-17T06:36:51;102676.63;;;12.73;46.17
29359;BME280;16347;53.232;6.556;2023-05-17T06:39:19;102682.69;;;12.77;46.58
29359;BME280;16347;53.232;6.556;2023-05-17T06:41:47;102680.47;;;12.71;46.34
29359;BME280;16347;53.232;6.556;2023-05-17T06:44:16;102689.91;;;12.78;46.54
29359;BME280;16347;53.232;6.556;2023-05-17T06:46:44;102688.66;;;12.82;46.23
29359;BME280;16347;53.232;6.556;2023-05-17T06:49:13;102690.19;;;12.53;46.10
29359;BME280;16347;53.232;6.556;2023-05-17T06:51:41;102695.38;;;12.56;46.15
29359;BME280;16347;53.232;6.556;2023-05-17T06:54:09;102700.09;;;12.65;45.77
29359;BME280;16347;53.232;6.556;2023-05-17T06:56:37;102696.66;;;12.41;45.03
29359;BME280;16347;53.232;6.556;2023-05-17T06:59:05;102694.28;;;12.47;45.58
29359;BME280;16347;53.232;6.556;2023-05-17T07:01:33;102705.72;;;12.52;45.15
29359;BME280;16347;53.232;6.556;2023-05-17T07:04:01;102709.19;;;12.54;44.52
29359;BME280;16347;53.232;6.556;2023-05-17T07:06:31;102706.09;;;12.48;44.23
29359;BME280;16347;53.232;6.556;2023-05-17T07:09:00;102722.72;;;12.45;44.19
29359;BME280;16347;53.232;6.556;2023-05-17T07:11:28;102710.19;;;12.42;43.50
29359;BME280;16347;53.232;6.556;2023-05-17T07:13:58;102718.97;;;12.57;44.28
29359;BME280;16347;53.232;6.556;2023-05-17T07:16:26;102720.34;;;12.62;43.60
29359;BME280;16347;53.232;6.556;2023-05-17T07:18:54;102723.44;;;12.69;44.36
29359;BME280;16347;53.232;6.556;2023-05-17T07:21:22;102730.22;;;12.74;44.47
29359;BME280;16347;53.232;6.556;2023-05-17T07:23:51;102727.84;;;12.81;44.43
29359;BME280;16347;53.232;6.556;2023-05-17T07:26:19;102722.91;;;12.75;45.12
29359;BME280;16347;53.232;6.556;2023-05-17T07:28:48;102735.41;;;12.89;45.23
29359;BME280;16347;53.232;6.556;2023-05-17T07:31:16;102729.34;;;12.85;44.79
29359;BME280;16347;53.232;6.556;2023-05-17T07:33:45;102741.13;;;12.85;44.18
29359;BME280;16347;53.232;6.556;2023-05-17T07:36:13;102730.06;;;12.87;44.14
29359;BME280;16347;53.232;6.556;2023-05-17T07:38:41;102738.75;;;12.92;44.34
29359;BME280;16347;53.232;6.556;2023-05-17T07:41:10;102742.81;;;12.98;44.10
29359;BME280;16347;53.232;6.556;2023-05-17T07:43:42;102746.78;;;13.05;44.05
29359;BME280;16347;53.232;6.556;2023-05-17T07:46:10;102745.81;;;13.06;43.16
29359;BME280;16347;53.232;6.556;2023-05-17T07:48:38;102742.19;;;13.05;42.67
29359;BME280;16347;53.232;6.556;2023-05-17T07:51:06;102744.44;;;13.00;42.73
29359;BME280;16347;53.232;6.556;2023-05-17T07:53:34;102753.38;;;13.02;43.36
29359;BME280;16347;53.232;6.556;2023-05-17T07:56:04;102760.25;;;12.85;44.87
29359;BME280;16347;53.232;6.556;2023-05-17T07:58:33;102758.22;;;12.99;44.78
29359;BME280;16347;53.232;6.556;2023-05-17T08:01:01;102773.94;;;13.06;45.32
29359;BME280;16347;53.232;6.556;2023-05-17T08:03:29;102771.50;;;13.14;45.04
29359;BME280;16347;53.232;6.556;2023-05-17T08:05:57;102759.94;;;13.22;44.75
29359;BME280;16347;53.232;6.556;2023-05-17T08:08:25;102773.66;;;13.31;44.83
29359;BME280;16347;53.232;6.556;2023-05-17T08:10:53;102787.41;;;13.41;43.68
29359;BME280;16347;53.232;6.556;2023-05-17T08:13:21;102774.88;;;12.96;42.85
29359;BME280;16347;53.232;6.556;2023-05-17T08:15:51;102785.56;;;12.76;42.14
29359;BME280;16347;53.232;6.556;2023-05-17T08:18:35;102775.75;;;12.74;42.14
29359;BME280;16347;53.232;6.556;2023-05-17T08:21:03;102786.06;;;12.81;41.47
29359;BME280;16347;53.232;6.556;2023-05-17T08:23:31;102794.50;;;12.78;41.47
29359;BME280;16347;53.232;6.556;2023-05-17T08:25:59;102776.84;;;12.94;40.62
29359;BME280;16347;53.232;6.556;2023-05-17T08:28:29;102784.19;;;12.82;40.13
29359;BME280;16347;53.232;6.556;2023-05-17T08:30:58;102766.19;;;12.91;39.59
29359;BME280;16347;53.232;6.556;2023-05-17T08:33:26;102781.44;;;12.93;40.40
29359;BME280;16347;53.232;6.556;2023-05-17T08:35:54;102776.94;;;13.03;40.03
29359;BME280;16347;53.232;6.556;2023-05-17T08:38:25;102777.69;;;13.16;39.75
29359;BME280;16347;53.232;6.556;2023-05-17T08:40:53;102783.81;;;13.09;39.62
29359;BME280;16347;53.232;6.556;2023-05-17T08:43:23;102787.84;;;13.25;38.69
29359;BME280;16347;53.232;6.556;2023-05-17T08:45:53;102780.56;;;13.15;39.02
29359;BME280;16347;53.232;6.556;2023-05-17T08:48:25;102786.41;;;13.10;40.03
29359;BME280;16347;53.232;6.556;2023-05-17T08:50:57;102786.75;;;13.06;40.35
29359;BME280;16347;53.232;6.556;2023-05-17T08:53:27;102788.13;;;13.11;40.32
29359;BME280;16347;53.232;6.556;2023-05-17T08:55:57;102809.59;;;13.05;40.58
29359;BME280;16347;53.232;6.556;2023-05-17T08:58:27;102787.59;;;13.06;41.03
29359;BME280;16347;53.232;6.556;2023-05-17T09:01:17;102793.47;;;13.02;41.84
29359;BME280;16347;53.232;6.556;2023-05-17T09:03:49;102796.06;;;13.14;42.67
29359;BME280;16347;53.232;6.556;2023-05-17T09:06:20;102809.44;;;13.28;42.71
29359;BME280;16347;53.232;6.556;2023-05-17T09:08:49;102799.88;;;13.23;42.37
29359;BME280;16347;53.232;6.556;2023-05-17T09:11:24;102807.28;;;13.43;42.00
29359;BME280;16347;53.232;6.556;2023-05-17T09:13:57;102814.75;;;13.41;41.63
29359;BME280;16347;53.232;6.556;2023-05-17T09:16:27;102811.78;;;13.33;41.19
29359;BME280;16347;53.232;6.556;2023-05-17T09:18:57;102806.31;;;13.33;40.85
29359;BME280;16347;53.232;6.556;2023-05-17T09:21:27;102811.38;;;13.49;40.79
29359;BME280;16347;53.232;6.556;2023-05-17T09:23:55;102808.38;;;13.52;40.74
29359;BME280;16347;53.232;6.556;2023-05-17T09:26:38;102814.13;;;13.38;39.77
29359;BME280;16347;53.232;6.556;2023-05-17T09:29:07;102814.72;;;13.52;39.21
29359;BME280;16347;53.232;6.556;2023-05-17T09:31:35;102825.31;;;13.34;39.20
29359;BME280;16347;53.232;6.556;2023-05-17T09:34:04;102814.00;;;13.39;39.70
29359;BME280;16347;53.232;6.556;2023-05-17T09:36:35;102823.31;;;13.36;39.90
29359;BME280;16347;53.232;6.556;2023-05-17T09:39:05;102826.56;;;13.30;39.38
29359;BME280;16347;53.232;6.556;2023-05-17T09:41:41;102823.66;;;13.11;39.42
29359;BME280;16347;53.232;6.556;2023-05-17T09:44:10;102821.88;;;13.21;39.58
29359;BME280;16347;53.232;6.556;2023-05-17T09:46:40;102820.50;;;13.27;38.93
29359;BME280;16347;53.232;6.556;2023-05-17T09:49:10;102830.69;;;13.36;39.13
29359;BME280;16347;53.232;6.556;2023-05-17T09:51:41;102824.28;;;13.47;39.08
29359;BME280;16347;53.232;6.556;2023-05-17T09:54:09;102834.38;;;13.46;38.87
29359;BME280;16347;53.232;6.556;2023-05-17T09:56:38;102838.25;;;13.32;38.66
29359;BME280;16347;53.232;6.556;2023-05-17T09:59:10;102841.44;;;13.38;38.89
29359;BME280;16347;53.232;6.556;2023-05-17T10:01:39;102835.72;;;13.41;39.28
29359;BME280;16347;53.232;6.556;2023-05-17T10:04:10;102847.91;;;13.36;39.42
29359;BME280;16347;53.232;6.556;2023-05-17T10:06:39;102846.72;;;13.29;39.05
29359;BME280;16347;53.232;6.556;2023-05-17T10:09:17;102837.66;;;13.29;39.56
29359;BME280;16347;53.232;6.556;2023-05-17T10:11:51;102853.16;;;13.40;39.68
29359;BME280;16347;53.232;6.556;2023-05-17T10:14:22;102855.97;;;13.49;39.39
29359;BME280;16347;53.232;6.556;2023-05-17T10:16:52;102859.50;;;13.72;39.46
29359;BME280;16347;53.232;6.556;2023-05-17T10:19:23;102855.78;;;13.62;38.72
29359;BME280;16347;53.232;6.556;2023-05-17T10:21:53;102860.81;;;13.77;38.46
29359;BME280;16347;53.232;6.556;2023-05-17T10:24:36;102855.34;;;13.77;37.48
29359;BME280;16347;53.232;6.556;2023-05-17T10:27:05;102852.53;;;13.68;37.38
29359;BME280;16347;53.232;6.556;2023-05-17T10:29:34;102855.28;;;13.68;37.79
29359;BME280;16347;53.232;6.556;2023-05-17T10:32:04;102854.22;;;13.80;38.08
29359;BME280;16347;53.232;6.556;2023-05-17T10:34:36;102851.84;;;13.86;38.29
29359;BME280;16347;53.232;6.556;2023-05-17T10:37:05;102854.06;;;13.93;38.33
29359;BME280;16347;53.232;6.556;2023-05-17T10:39:34;102858.03;;;13.88;38.99
29359;BME280;16347;53.232;6.556;2023-05-17T10:42:07;102863.63;;;13.66;40.00
29359;BME280;16347;53.232;6.556;2023-05-17T10:44:38;102867.09;;;13.57;40.11
29359;BME280;16347;53.232;6.556;2023-05-17T10:47:07;102863.50;;;13.57;40.31
29359;BME280;16347;53.232;6.556;2023-05-17T10:49:37;102865.28;;;13.47;40.40
29359;BME280;16347;53.232;6.556;2023-05-17T10:52:11;102860.69;;;13.47;40.05
29359;BME280;16347;53.232;6.556;2023-05-17T10:54:41;102866.75;;;13.51;40.53
29359;BME280;16347;53.232;6.556;2023-05-17T10:57:18;102860.81;;;13.77;40.57
29359;BME280;16347;53.232;6.556;2023-05-17T10:59:56;102868.44;;;13.95;40.99
29359;BME280;16347;53.232;6.556;2023-05-17T11:02:26;102862.59;;;13.99;39.68
29359;BME280;16347;53.232;6.556;2023-05-17T11:04:56;102866.97;;;13.91;39.46
29359;BME280;16347;53.232;6.556;2023-05-17T11:07:27;102857.50;;;13.95;40.34
29359;BME280;16347;53.232;6.556;2023-05-17T11:10:10;102862.94;;;14.06;39.47
29359;BME280;16347;53.232;6.556;2023-05-17T11:12:40;102850.72;;;13.89;38.24
29359;BME280;16347;53.232;6.556;2023-05-17T11:15:11;102846.78;;;13.82;38.17
29359;BME280;16347;53.232;6.556;2023-05-17T11:17:47;102846.97;;;13.90;37.97
29359;BME280;16347;53.232;6.556;2023-05-17T11:20:31;102854.69;;;13.85;37.75
29359;BME280;16347;53.232;6.556;2023-05-17T11:23:02;102852.63;;;13.77;37.81
29359;BME280;16347;53.232;6.556;2023-05-17T11:25:32;102855.69;;;13.84;38.21
29359;BME280;16347;53.232;6.556;2023-05-17T11:28:06;102868.84;;;13.90;37.81
29359;BME280;16347;53.232;6.556;2023-05-17T11:30:39;102855.88;;;14.03;37.66
29359;BME280;16347;53.232;6.556;2023-05-17T11:33:07;102850.03;;;14.17;38.60
29359;BME280;16347;53.232;6.556;2023-05-17T11:35:53;102859.94;;;14.29;39.54
29359;BME280;16347;53.232;6.556;2023-05-17T11:38:22;102859.16;;;14.38;38.67
29359;BME280;16347;53.232;6.556;2023-05-17T11:40:52;102860.53;;;14.33;37.68
29359;BME280;16347;53.232;6.556;2023-05-17T11:43:22;102862.00;;;14.16;35.83
29359;BME280;16347;53.232;6.556;2023-05-17T11:45:53;102850.81;;;14.40;35.85
29359;BME280;16347;53.232;6.556;2023-05-17T11:48:25;102863.63;;;14.40;34.99
29359;BME280;16347;53.232;6.556;2023-05-17T11:50:55;102853.28;;;14.43;35.89
29359;BME280;16347;53.232;6.556;2023-05-17T11:53:29;102850.06;;;14.38;36.17
29359;BME280;16347;53.232;6.556;2023-05-17T11:56:01;102839.00;;;14.40;37.23
29359;BME280;16347;53.232;6.556;2023-05-17T11:58:30;102844.53;;;14.49;37.23
29359;BME280;16347;53.232;6.556;2023-05-17T12:00:58;102847.00;;;14.52;36.09
29359;BME280;16347;53.232;6.556;2023-05-17T12:03:27;102855.09;;;14.54;37.16
29359;BME280;16347;53.232;6.556;2023-05-17T12:06:07;102848.19;;;14.59;37.76
29359;BME280;16347;53.232;6.556;2023-05-17T12:08:37;102849.94;;;14.60;36.63
29359;BME280;16347;53.232;6.556;2023-05-17T12:11:06;102841.03;;;14.77;36.95
29359;BME280;16347;53.232;6.556;2023-05-17T12:13:34;102859.25;;;14.58;37.27
29359;BME280;16347;53.232;6.556;2023-05-17T12:16:06;102854.56;;;14.39;37.39
29359;BME280;16347;53.232;6.556;2023-05-17T12:18:36;102849.53;;;14.44;37.66
29359;BME280;16347;53.232;6.556;2023-05-17T12:21:08;102842.16;;;14.65;37.03
29359;BME280;16347;53.232;6.556;2023-05-17T12:23:38;102843.47;;;14.71;36.74
29359;BME280;16347;53.232;6.556;2023-05-17T12:26:08;102844.84;;;14.86;36.83
29359;BME280;16347;53.232;6.556;2023-05-17T12:28:37;102854.81;;;14.87;37.68
29359;BME280;16347;53.232;6.556;2023-05-17T12:31:08;102858.38;;;14.87;37.75
29359;BME280;16347;53.232;6.556;2023-05-17T12:33:38;102847.09;;;14.71;37.18
29359;BME280;16347;53.232;6.556;2023-05-17T12:36:10;102846.22;;;14.71;36.90
29359;BME280;16347;53.232;6.556;2023-05-17T12:38:39;102842.19;;;14.75;36.36
29359;BME280;16347;53.232;6.556;2023-05-17T12:41:09;102849.81;;;14.71;36.18
29359;BME280;16347;53.232;6.556;2023-05-17T12:43:39;102845.28;;;14.61;36.42
29359;BME280;16347;53.232;6.556;2023-05-17T12:46:08;102845.97;;;14.74;36.71
29359;BME280;16347;53.232;6.556;2023-05-17T12:48:38;102849.13;;;14.79;36.83
29359;BME280;16347;53.232;6.556;2023-05-17T12:51:12;102847.00;;;14.82;36.48
29359;BME280;16347;53.232;6.556;2023-05-17T12:53:41;102842.53;;;14.91;36.40
29359;BME280;16347;53.232;6.556;2023-05-17T12:56:14;102840.31;;;15.06;34.92
29359;BME280;16347;53.232;6.556;2023-05-17T12:58:42;102847.44;;;15.27;36.07
29359;BME280;16347;53.232;6.556;2023-05-17T13:01:10;102839.41;;;15.55;35.75
29359;BME280;16347;53.232;6.556;2023-05-17T13:03:40;102829.47;;;15.63;35.41
29359;BME280;16347;53.232;6.556;2023-05-17T13:06:08;102849.34;;;15.46;35.16